Time;durP1;ratioP1;P1;durP2;ratioP2;P2;SDS_P1;SDS_P2;PMS_P1;PMS_P2;Temp;Humidity;BMP_temperature;BMP_pressure;BME280_temperature;BME280_humidity;BME280_pressure;Samples;Min_cycle;Max_cycle;Signal;HPM_P1;HPM_P2
2023/10/05 00:03:37;;;;;;;;;;;;;;;9.13;100.00;97486.25;5067510;28;19934;-79
2023/10/05 00:06:16;;;;;;;;;;;;;;;9.10;100.00;97486.63;5068260;28;19933;-78
2023/10/05 00:08:44;;;;;;;;;;;;;;;9.10;100.00;97481.41;5066875;28;19936;-79
2023/10/05 00:11:10;;;;;;;;;;;;;;;9.09;100.00;97474.53;5067360;28;19937;-79
2023/10/05 00:13:37;;;;;;;;;;;;;;;9.09;100.00;97464.06;5067314;28;19933;-79
2023/10/05 00:16:05;;;;;;;;;;;;;;;9.06;100.00;97474.91;5068016;28;19951;-78
2023/10/05 00:18:32;;;;;;;;;;;;;;;9.05;100.00;97471.47;5067191;28;19942;-79
2023/10/05 00:21:00;;;;;;;;;;;;;;;9.05;100.00;97465.41;5067779;28;19937;-78
2023/10/05 00:23:27;;;;;;;;;;;;;;;9.02;100.00;97463.97;5067110;28;19938;-79
2023/10/05 00:25:55;;;;;;;;;;;;;;;9.01;100.00;97466.78;5067119;28;19935;-79
2023/10/05 00:28:23;;;;;;;;;;;;;;;9.01;100.00;97470.22;5065861;28;19942;-79
2023/10/05 00:30:52;;;;;;;;;;;;;;;9.03;100.00;97462.16;5066991;28;19946;-78
2023/10/05 00:33:18;;;;;;;;;;;;;;;9.02;100.00;97455.31;5066940;28;19944;-78
2023/10/05 00:35:44;;;;;;;;;;;;;;;9.00;100.00;97447.66;5066816;28;19948;-79
2023/10/05 00:38:14;;;;;;;;;;;;;;;9.02;100.00;97460.56;5067419;28;19941;-79
2023/10/05 00:40:51;;;;;;;;;;;;;;;9.00;100.00;97450.28;5067070;28;20121;-79
2023/10/05 00:45:47;;;;;;;;;;;;;;;8.99;100.00;97450.44;5067210;28;20001;-79
2023/10/05 00:48:26;;;;;;;;;;;;;;;8.97;100.00;97447.22;5066773;28;20127;-79
2023/10/05 00:50:53;;;;;;;;;;;;;;;8.94;100.00;97443.97;5067197;28;19946;-79
2023/10/05 00:53:19;;;;;;;;;;;;;;;8.96;100.00;97453.44;5066523;28;19937;-80
2023/10/05 00:55:49;;;;;;;;;;;;;;;8.95;100.00;97450.03;5066734;28;20112;-79
2023/10/05 00:58:15;;;;;;;;;;;;;;;8.92;100.00;97439.91;5066511;28;19941;-79
2023/10/05 01:00:50;;;;;;;;;;;;;;;8.92;100.00;97439.91;5065986;28;19946;-79
2023/10/05 01:03:23;;;;;;;;;;;;;;;8.90;100.00;97434.88;5066959;28;19938;-79
2023/10/05 01:06:01;;;;;;;;;;;;;;;8.90;100.00;97427.03;5067192;28;20079;-79
2023/10/05 01:08:31;;;;;;;;;;;;;;;8.89;100.00;97414.94;5065635;28;20186;-79
2023/10/05 01:10:58;;;;;;;;;;;;;;;8.88;100.00;97420.34;5066223;28;19935;-79
2023/10/05 01:13:34;;;;;;;;;;;;;;;8.87;100.00;97408.25;5066965;28;19945;-79
2023/10/05 01:16:12;;;;;;;;;;;;;;;8.85;100.00;97394.56;5066943;28;19951;-79
2023/10/05 01:18:39;;;;;;;;;;;;;;;8.84;100.00;97393.75;5066122;28;19931;-79
2023/10/05 01:21:07;;;;;;;;;;;;;;;8.85;100.00;97397.16;5066609;28;20235;-79
2023/10/05 01:23:38;;;;;;;;;;;;;;;8.83;100.00;97392.13;5066079;28;20090;-79
2023/10/05 01:26:13;;;;;;;;;;;;;;;8.83;100.00;97399.97;5066516;28;19937;-79
2023/10/05 01:28:41;;;;;;;;;;;;;;;8.83;100.00;97413.03;5066724;28;19944;-79
2023/10/05 01:31:16;;;;;;;;;;;;;;;8.82;100.00;97408.81;5065928;28;19942;-79
2023/10/05 01:33:46;;;;;;;;;;;;;;;8.82;100.00;97402.75;5066326;28;20111;-79
2023/10/05 01:36:15;;;;;;;;;;;;;;;8.81;100.00;97406.38;5065615;28;19960;-79
2023/10/05 01:38:41;;;;;;;;;;;;;;;8.81;100.00;97412.41;5066466;28;19949;-79
2023/10/05 01:41:09;;;;;;;;;;;;;;;8.80;100.00;97416.03;5065301;28;19972;-79
2023/10/05 01:43:35;;;;;;;;;;;;;;;8.78;100.00;97411.97;5066151;28;19934;-80
2023/10/05 01:46:04;;;;;;;;;;;;;;;8.79;100.00;97413.59;5065631;28;19940;-80
2023/10/05 01:48:31;;;;;;;;;;;;;;;8.78;100.00;97409.34;5065396;28;19959;-79
2023/10/05 01:51:05;;;;;;;;;;;;;;;8.75;100.00;97392.22;5065465;28;19941;-80
2023/10/05 01:53:32;;;;;;;;;;;;;;;8.72;100.00;97400.44;5065409;28;19935;-79
2023/10/05 01:55:59;;;;;;;;;;;;;;;8.69;100.00;97398.16;5065893;28;19980;-78
2023/10/05 01:58:27;;;;;;;;;;;;;;;8.67;100.00;97397.53;5065848;28;20208;-79
2023/10/05 02:00:56;;;;;;;;;;;;;;;8.65;100.00;97389.06;5065233;28;19934;-79
2023/10/05 02:03:25;;;;;;;;;;;;;;;8.63;100.00;97388.44;5065247;28;19936;-79
2023/10/05 02:05:58;;;;;;;;;;;;;;;8.63;100.00;97393.66;5065174;28;19941;-79
2023/10/05 02:08:24;;;;;;;;;;;;;;;8.62;100.00;97389.44;5065952;28;19935;-79
2023/10/05 02:10:50;;;;;;;;;;;;;;;8.60;100.00;97397.47;5065358;28;19941;-78
2023/10/05 02:13:17;;;;;;;;;;;;;;;8.57;100.00;97397.00;5065033;28;19974;-79
2023/10/05 02:15:45;;;;;;;;;;;;;;;8.54;100.00;97396.38;5064884;28;20211;-79
2023/10/05 02:18:32;;;;;;;;;;;;;;;8.52;100.00;97394.94;5065468;28;20121;-79
2023/10/05 02:21:08;;;;;;;;;;;;;;;8.50;100.00;97397.75;5064789;28;19942;-79
2023/10/05 02:23:37;;;;;;;;;;;;;;;8.47;100.00;97395.50;5065373;28;19940;-79
2023/10/05 02:26:23;;;;;;;;;;;;;;;8.44;100.00;97413.34;5064788;28;20127;-79
2023/10/05 02:28:51;;;;;;;;;;;;;;;8.40;100.00;97394.56;5065313;28;19963;-79
2023/10/05 02:31:20;;;;;;;;;;;;;;;8.38;100.00;97398.34;5064738;28;19938;-79
2023/10/05 02:33:45;;;;;;;;;;;;;;;8.37;100.00;97399.34;5064783;28;19941;-79
2023/10/05 02:36:14;;;;;;;;;;;;;;;8.36;100.00;97395.09;5064501;28;19955;-79
2023/10/05 02:38:48;;;;;;;;;;;;;;;8.33;100.00;97391.03;5065076;28;19937;-79
2023/10/05 02:41:17;;;;;;;;;;;;;;;8.34;100.00;97384.84;5065412;28;19937;-79
2023/10/05 02:43:51;;;;;;;;;;;;;;;8.33;100.00;97383.19;5064473;28;19937;-79
2023/10/05 02:46:19;;;;;;;;;;;;;;;8.31;100.00;97382.56;5064909;28;19953;-78
2023/10/05 02:48:46;;;;;;;;;;;;;;;8.29;100.00;97382.75;5065227;28;20016;-79
2023/10/05 02:51:13;;;;;;;;;;;;;;;8.28;100.00;97380.31;5064939;28;20208;-79
2023/10/05 02:53:55;;;;;;;;;;;;;;;8.27;100.00;97383.91;5064315;28;19940;-80
2023/10/05 02:56:27;;;;;;;;;;;;;;;8.24;100.00;97390.31;5064200;28;20121;-80
2023/10/05 02:58:55;;;;;;;;;;;;;;;8.23;100.00;97386.09;5064317;28;19937;-79
2023/10/05 03:01:22;;;;;;;;;;;;;;;8.24;100.00;97387.72;5064195;28;19942;-81
2023/10/05 03:03:48;;;;;;;;;;;;;;;8.23;100.00;97378.25;5064198;28;20234;-79
2023/10/05 03:06:15;;;;;;;;;;;;;;;8.22;100.00;97375.81;5064185;28;19935;-79
2023/10/05 03:08:42;;;;;;;;;;;;;;;8.23;100.00;97387.88;5064063;28;19934;-80
2023/10/05 03:11:08;;;;;;;;;;;;;;;8.24;100.00;97382.47;5062986;28;19941;-80
2023/10/05 03:13:36;;;;;;;;;;;;;;;8.26;100.00;97375.28;5064063;28;19948;-79
2023/10/05 03:16:06;;;;;;;;;;;;;;;8.26;100.00;97382.31;5062866;28;19959;-80
2023/10/05 03:18:37;;;;;;;;;;;;;;;8.27;100.00;97386.53;5063955;28;19935;-79
2023/10/05 03:21:10;;;;;;;;;;;;;;;8.25;100.00;97376.28;5062872;28;19942;-80
2023/10/05 03:23:37;;;;;;;;;;;;;;;8.23;100.00;97375.66;5063899;28;20123;-80
2023/10/05 03:26:03;;;;;;;;;;;;;;;8.22;100.00;97367.97;5063954;28;19935;-79
2023/10/05 03:28:30;;;;;;;;;;;;;;;8.21;100.00;97382.00;5063955;28;19936;-79
2023/10/05 03:30:57;;;;;;;;;;;;;;;8.19;100.00;97378.78;5066445;28;20222;-79
2023/10/05 03:33:24;;;;;;;;;;;;;;;8.17;100.00;97371.13;5071074;28;20239;-80
2023/10/05 03:35:50;;;;;;;;;;;;;;;8.17;100.00;97376.34;5070458;28;19956;-79
2023/10/05 03:38:22;;;;;;;;;;;;;;;8.17;100.00;97375.53;5070993;28;19978;-79
2023/10/05 03:40:48;;;;;;;;;;;;;;;8.15;100.00;97378.34;5071021;28;19943;-79
2023/10/05 03:43:14;;;;;;;;;;;;;;;8.17;100.00;97378.13;5069254;28;19938;-79
2023/10/05 03:45:40;;;;;;;;;;;;;;;8.17;100.00;97375.53;5070387;28;19936;-80
2023/10/05 03:48:06;;;;;;;;;;;;;;;8.19;100.00;97389.22;5070427;28;19964;-79
2023/10/05 03:50:31;;;;;;;;;;;;;;;8.19;100.00;97395.28;5070591;28;19985;-80
2023/10/05 03:52:58;;;;;;;;;;;;;;;8.19;100.00;97392.66;5069267;28;19937;-80
2023/10/05 03:55:24;;;;;;;;;;;;;;;8.21;100.00;97400.31;5070273;28;19955;-80
2023/10/05 03:57:50;;;;;;;;;;;;;;;8.21;100.00;97395.09;5069855;28;19941;-79
2023/10/05 04:02:52;;;;;;;;;;;;;;;8.22;100.00;97399.34;5070824;28;20114;-79
2023/10/05 04:05:22;;;;;;;;;;;;;;;8.22;100.00;97391.50;5070224;28;19934;-79
2023/10/05 04:07:49;;;;;;;;;;;;;;;8.23;100.00;97398.31;5070229;28;20130;-78
2023/10/05 04:10:20;;;;;;;;;;;;;;;8.21;100.00;97403.75;5070251;28;20221;-79
2023/10/05 04:12:46;;;;;;;;;;;;;;;8.21;100.00;97400.31;5070204;28;19942;-79
2023/10/05 04:15:12;;;;;;;;;;;;;;;8.21;100.00;97405.53;5070119;28;19998;-79
2023/10/05 04:17:38;;;;;;;;;;;;;;;8.20;100.00;97404.72;5070123;28;19930;-80
2023/10/05 04:20:17;;;;;;;;;;;;;;;8.19;100.00;97394.44;5070637;28;19968;-79
2023/10/05 04:22:45;;;;;;;;;;;;;;;8.19;100.00;97402.28;5070375;28;19940;-80
2023/10/05 04:25:14;;;;;;;;;;;;;;;8.18;100.00;97403.28;5070096;28;19942;-80
2023/10/05 04:27:40;;;;;;;;;;;;;;;8.19;100.00;97394.44;5070019;28;19954;-80
2023/10/05 04:30:07;;;;;;;;;;;;;;;8.18;100.00;97390.22;5070606;28;19937;-79
2023/10/05 04:32:33;;;;;;;;;;;;;;;8.20;100.00;97388.25;5068815;28;20000;-79
2023/10/05 04:34:58;;;;;;;;;;;;;;;8.21;100.00;97400.31;5069959;28;19946;-80
2023/10/05 04:37:25;;;;;;;;;;;;;;;8.22;100.00;97396.72;5069947;28;20029;-80
2023/10/05 04:39:51;;;;;;;;;;;;;;;8.22;100.00;97397.53;5070267;28;19930;-79
2023/10/05 04:42:17;;;;;;;;;;;;;;;8.24;100.00;97394.75;5069023;28;19934;-80
2023/10/05 04:44:45;;;;;;;;;;;;;;;8.23;100.00;97386.09;5066570;28;19955;-80
2023/10/05 04:47:13;;;;;;;;;;;;;;;8.21;100.00;97397.69;5066606;28;19989;-79
2023/10/05 04:49:40;;;;;;;;;;;;;;;8.18;100.00;97385.00;5066653;28;19938;-80
2023/10/05 04:52:06;;;;;;;;;;;;;;;8.16;100.00;97392.22;5066641;28;19931;-80
2023/10/05 04:54:38;;;;;;;;;;;;;;;8.15;100.00;97396.63;5065521;28;19941;-80
2023/10/05 04:57:12;;;;;;;;;;;;;;;8.13;100.00;97388.97;5067039;28;19948;-79
2023/10/05 04:59:48;;;;;;;;;;;;;;;8.13;100.00;97388.16;5066534;28;19936;-80
2023/10/05 05:02:47;;;;;;;;;;;;;;;8.13;100.00;97385.53;5065370;28;19938;-79
2023/10/05 05:05:34;;;;;;;;;;;;;;;8.13;100.00;97388.16;5066372;28;19937;-79
2023/10/05 05:08:02;;;;;;;;;;;;;;;8.16;100.00;97384.38;5066405;28;19941;-80
2023/10/05 05:10:28;;;;;;;;;;;;;;;8.16;100.00;97385.19;5067049;28;19943;-80
2023/10/05 05:12:53;;;;;;;;;;;;;;;8.17;100.00;97384.19;5066225;28;19937;-79
2023/10/05 05:15:19;;;;;;;;;;;;;;;8.17;100.00;97384.19;5066935;28;19947;-80
2023/10/05 05:17:45;;;;;;;;;;;;;;;8.18;100.00;97380.59;5066122;28;19947;-80
2023/10/05 05:20:15;;;;;;;;;;;;;;;8.16;100.00;97371.31;5066118;28;19945;-79
2023/10/05 05:22:42;;;;;;;;;;;;;;;8.17;100.00;97381.59;5066009;28;19941;-80
2023/10/05 05:25:09;;;;;;;;;;;;;;;8.15;100.00;97383.56;5066013;28;19967;-80
2023/10/05 05:27:35;;;;;;;;;;;;;;;8.14;100.00;97387.16;5065893;28;19945;-79
2023/10/05 05:30:01;;;;;;;;;;;;;;;8.14;100.00;97392.38;5065956;28;19934;-80
2023/10/05 05:32:29;;;;;;;;;;;;;;;8.13;100.00;97393.38;5066574;28;19947;-80
2023/10/05 05:34:55;;;;;;;;;;;;;;;8.11;100.00;97395.38;5064996;28;20244;-79
2023/10/05 05:37:30;;;;;;;;;;;;;;;8.09;100.00;97387.69;5065950;28;19958;-80
2023/10/05 05:39:57;;;;;;;;;;;;;;;8.08;100.00;97398.31;5065779;28;19935;-79
2023/10/05 05:42:25;;;;;;;;;;;;;;;8.08;100.00;97406.16;5065672;28;19939;-79
2023/10/05 05:44:53;;;;;;;;;;;;;;;8.08;100.00;97398.31;5065912;28;19939;-79
2023/10/05 05:47:19;;;;;;;;;;;;;;;8.09;100.00;97399.94;5064295;28;19989;-80
2023/10/05 05:49:45;;;;;;;;;;;;;;;8.11;100.00;97414.47;5065536;28;20237;-79
2023/10/05 05:52:12;;;;;;;;;;;;;;;8.13;100.00;97409.06;5048625;28;19940;-79
2023/10/05 05:54:38;;;;;;;;;;;;;;;8.12;100.00;97400.38;5065455;28;20228;-79
2023/10/05 05:57:07;;;;;;;;;;;;;;;8.14;100.00;97395.00;5065042;28;19956;-79
2023/10/05 05:59:38;;;;;;;;;;;;;;;8.16;100.00;97397.44;5065846;28;20193;-79
2023/10/05 06:02:07;;;;;;;;;;;;;;;8.17;100.00;97399.88;5048192;28;19939;-79
2023/10/05 06:04:36;;;;;;;;;;;;;;;8.19;100.00;97405.72;5065251;28;19945;-79
2023/10/05 06:07:11;;;;;;;;;;;;;;;8.21;100.00;97406.38;5065961;28;20109;-79
2023/10/05 06:09:37;;;;;;;;;;;;;;;8.23;100.00;97416.63;5065147;28;19932;-79
2023/10/05 06:12:05;;;;;;;;;;;;;;;8.23;100.00;97414.84;5065850;28;19934;-80
2023/10/05 06:14:34;;;;;;;;;;;;;;;8.26;100.00;97411.06;5065007;28;19959;-80
2023/10/05 06:17:00;;;;;;;;;;;;;;;8.29;100.00;97416.75;5063817;28;19988;-80
2023/10/05 06:19:27;;;;;;;;;;;;;;;8.31;100.00;97401.66;5064945;28;19935;-79
2023/10/05 06:21:53;;;;;;;;;;;;;;;8.40;100.00;97404.19;5065714;28;19958;-78
2023/10/05 06:24:18;;;;;;;;;;;;;;;8.44;100.00;97400.25;5064914;28;19937;-79
2023/10/05 06:26:48;;;;;;;;;;;;;;;8.45;100.00;97394.84;5064879;28;19939;-79
2023/10/05 06:29:14;;;;;;;;;;;;;;;8.51;100.00;97409.03;5064784;28;19943;-79
2023/10/05 06:31:43;;;;;;;;;;;;;;;8.53;100.00;97412.25;5065257;28;20258;-79
2023/10/05 06:34:09;;;;;;;;;;;;;;;8.50;100.00;97410.84;5064620;28;19938;-79
2023/10/05 06:36:39;;;;;;;;;;;;;;;8.50;100.00;97410.84;5065351;28;19955;-79
2023/10/05 06:39:06;;;;;;;;;;;;;;;8.48;100.00;97419.81;5064678;28;19937;-79
2023/10/05 06:41:34;;;;;;;;;;;;;;;8.48;100.00;97419.81;5064565;28;20213;-79
2023/10/05 06:44:02;;;;;;;;;;;;;;;8.52;100.00;97426.31;5064523;28;19947;-80
2023/10/05 06:46:28;;;;;;;;;;;;;;;8.59;100.00;97432.47;5065092;28;19980;-80
2023/10/05 06:48:55;;;;;;;;;;;;;;;8.76;100.00;97430.47;5065023;28;20118;-80
2023/10/05 06:51:22;;;;;;;;;;;;;;;8.79;100.00;97431.91;5064421;28;20146;-79
2023/10/05 06:53:48;;;;;;;;;;;;;;;8.81;100.00;97446.41;5064336;28;19933;-78
2023/10/05 06:56:14;;;;;;;;;;;;;;;8.90;100.00;97436.66;5063185;28;20264;-79
2023/10/05 06:58:41;;;;;;;;;;;;;;;9.06;100.00;97446.13;5064265;28;19937;-80
2023/10/05 07:01:07;;;;;;;;;;;;;;;9.11;100.00;97443.75;5064970;28;20205;-79
2023/10/05 07:03:33;;;;;;;;;;;;;;;9.08;100.00;97442.31;5064128;28;19940;-79
2023/10/05 07:05:59;;;;;;;;;;;;;;;9.01;100.00;97446.69;5062624;28;19942;-79
2023/10/05 07:08:25;;;;;;;;;;;;;;;8.98;100.00;97451.44;5064127;28;20123;-80
2023/10/05 07:10:51;;;;;;;;;;;;;;;8.97;100.00;97458.50;5064123;28;19938;-78
2023/10/05 07:13:19;;;;;;;;;;;;;;;8.95;100.00;97460.47;5062977;28;19942;-79
2023/10/05 07:15:45;;;;;;;;;;;;;;;8.97;100.00;97462.94;5063940;28;19939;-80
2023/10/05 07:18:12;;;;;;;;;;;;;;;8.99;100.00;97469.59;5064820;28;19944;-79
2023/10/05 07:20:41;;;;;;;;;;;;;;;9.04;100.00;97464.63;5063985;28;20108;-79
2023/10/05 07:23:07;;;;;;;;;;;;;;;9.12;100.00;97463.72;5063948;28;20113;-78
2023/10/05 07:25:33;;;;;;;;;;;;;;;9.18;100.00;97462.16;5063875;28;20105;-79
2023/10/05 07:27:59;;;;;;;;;;;;;;;9.25;100.00;97461.22;5062915;28;20136;-78
2023/10/05 07:30:25;;;;;;;;;;;;;;;9.39;100.00;97466.63;5063852;28;19931;-81
2023/10/05 07:32:51;;;;;;;;;;;;;;;9.46;100.00;97460.47;5063896;28;20159;-77
2023/10/05 07:35:17;;;;;;;;;;;;;;;9.55;100.00;97455.91;5063855;28;20145;-78
2023/10/05 07:37:42;;;;;;;;;;;;;;;9.61;100.00;97457.78;5064499;28;20237;-78
2023/10/05 07:40:09;;;;;;;;;;;;;;;9.71;100.00;97460.09;5063891;28;19930;-78
2023/10/05 07:42:37;;;;;;;;;;;;;;;9.80;100.00;97460.78;5063983;28;19983;-78
2023/10/05 07:45:07;;;;;;;;;;;;;;;9.88;100.00;97465.91;5063980;28;20140;-78
2023/10/05 07:47:33;;;;;;;;;;;;;;;9.94;100.00;97468.56;5063757;28;19967;-78
2023/10/05 07:50:00;;;;;;;;;;;;;;;9.99;100.00;97464.56;5063620;28;19942;-78
2023/10/05 07:52:26;;;;;;;;;;;;;;;10.04;100.00;97472.69;5063636;28;19941;-79
2023/10/05 07:54:52;;;;;;;;;;;;;;;10.07;100.00;97472.31;5063655;28;20033;-78
2023/10/05 07:57:18;;;;;;;;;;;;;;;10.15;100.00;97477.41;5062429;28;19964;-77
2023/10/05 07:59:44;;;;;;;;;;;;;;;10.20;100.00;97476.84;5063636;28;19941;-78
2023/10/05 08:02:14;;;;;;;;;;;;;;;10.25;100.00;97471.84;5063636;28;19932;-78
2023/10/05 08:04:40;;;;;;;;;;;;;;;10.31;100.00;97471.94;5063545;28;19938;-78
2023/10/05 08:07:07;;;;;;;;;;;;;;;10.38;100.00;97471.19;5064354;28;19940;-78
2023/10/05 08:09:34;;;;;;;;;;;;;;;10.44;100.00;97470.41;5063481;28;19937;-78
2023/10/05 08:12:00;;;;;;;;;;;;;;;10.50;100.00;97467.03;5063460;28;20118;-77
2023/10/05 08:14:26;;;;;;;;;;;;;;;10.57;100.00;97480.97;5063552;28;19935;-78
2023/10/05 08:16:52;;;;;;;;;;;;;;;10.67;100.00;97478.03;5063393;28;19954;-78
2023/10/05 08:19:19;;;;;;;;;;;;;;;10.77;100.00;97481.09;5066916;28;19942;-78
2023/10/05 08:21:45;;;;;;;;;;;;;;;10.84;100.00;97478.53;5067246;28;19941;-78
2023/10/05 08:24:14;;;;;;;;;;;;;;;10.88;100.00;97469.25;5067762;28;19935;-78
2023/10/05 08:26:41;;;;;;;;;;;;;;;10.90;100.00;97480.38;5067103;28;19927;-78
2023/10/05 08:29:07;;;;;;;;;;;;;;;10.93;100.00;97482.59;5067666;28;19945;-78
2023/10/05 08:31:33;;;;;;;;;;;;;;;10.96;100.00;97490.06;5067023;28;19942;-78
2023/10/05 08:34:00;;;;;;;;;;;;;;;11.05;100.00;97493.38;5066950;28;19938;-78
2023/10/05 08:36:26;;;;;;;;;;;;;;;11.15;100.00;97481.50;5066838;28;19963;-80
2023/10/05 08:38:55;;;;;;;;;;;;;;;11.22;100.00;97486.78;5066890;28;19937;-78
2023/10/05 08:41:39;;;;;;;;;;;;;;;11.30;100.00;97480.53;5066869;28;19992;-78
2023/10/05 08:46:52;;;;;;;;;;;;;;;11.60;100.00;97485.47;5066783;28;19967;-78
2023/10/05 08:49:17;;;;;;;;;;;;;;;11.72;100.00;97482.06;5066390;28;20158;-78
2023/10/05 08:51:45;;;;;;;;;;;;;;;11.86;100.00;97482.09;5065188;28;20354;-77
2023/10/05 08:54:13;;;;;;;;;;;;;;;11.95;100.00;97463.31;5066893;28;20120;-78
2023/10/05 08:56:40;;;;;;;;;;;;;;;12.00;100.00;97473.22;5066480;28;19957;-78
2023/10/05 08:59:13;;;;;;;;;;;;;;;12.10;100.00;97486.00;5067075;28;19939;-78
2023/10/05 09:01:42;;;;;;;;;;;;;;;12.17;100.00;97468.38;5067062;28;19934;-78
2023/10/05 09:04:12;;;;;;;;;;;;;;;12.18;100.00;97468.19;5067278;28;20024;-78
2023/10/05 09:06:48;;;;;;;;;;;;;;;12.21;100.00;97469.59;5065206;28;19937;-78
2023/10/05 09:09:15;;;;;;;;;;;;;;;12.27;100.00;97463.53;5065239;28;19952;-77
2023/10/05 09:11:41;;;;;;;;;;;;;;;12.31;100.00;97475.25;5066299;28;20220;-78
2023/10/05 09:14:17;;;;;;;;;;;;;;;12.40;100.00;97486.38;5065155;28;19947;-78
2023/10/05 09:16:45;;;;;;;;;;;;;;;12.52;100.00;97478.69;5066116;28;19957;-77
2023/10/05 09:19:17;;;;;;;;;;;;;;;12.61;100.00;97458.22;5066161;28;19940;-78
2023/10/05 09:21:50;;;;;;;;;;;;;;;12.66;100.00;97453.97;5066147;28;19932;-77
2023/10/05 09:24:20;;;;;;;;;;;;;;;12.66;100.00;97446.06;5065789;28;20211;-78
2023/10/05 09:26:49;;;;;;;;;;;;;;;12.74;100.00;97477.41;5065955;28;19937;-78
2023/10/05 09:29:22;;;;;;;;;;;;;;;12.85;100.00;97464.63;5065512;28;20174;-77
2023/10/05 09:31:53;;;;;;;;;;;;;;;12.89;100.00;97448.25;5065535;28;19935;-78
2023/10/05 09:34:35;;;;;;;;;;;;;;;12.92;100.00;97458.34;5066397;28;19955;-78
2023/10/05 09:37:08;;;;;;;;;;;;;;;13.05;100.00;97451.41;5065958;28;19936;-77
2023/10/05 09:39:44;;;;;;;;;;;;;;;13.03;100.00;97440.28;5066573;28;19943;-78
2023/10/05 09:42:14;;;;;;;;;;;;;;;13.11;100.00;97463.75;5064550;28;19943;-78
2023/10/05 09:44:44;;;;;;;;;;;;;;;13.20;100.00;97467.75;5066493;28;19940;-78
2023/10/05 09:47:12;;;;;;;;;;;;;;;13.33;100.00;97459.84;5065459;28;19960;-77
2023/10/05 09:49:39;;;;;;;;;;;;;;;13.42;100.00;97455.13;5066357;28;19939;-78
2023/10/05 09:52:08;;;;;;;;;;;;;;;13.51;100.00;97455.69;5065608;28;19960;-78
2023/10/05 09:54:34;;;;;;;;;;;;;;;13.62;100.00;97467.38;5065490;28;19934;-78
2023/10/05 09:57:10;;;;;;;;;;;;;;;13.75;100.00;97473.41;5064329;28;19955;-78
2023/10/05 09:59:41;;;;;;;;;;;;;;;13.88;100.00;97435.59;5065691;28;19939;-77
2023/10/05 10:02:18;;;;;;;;;;;;;;;14.01;100.00;97447.84;5064962;28;19944;-78
2023/10/05 10:04:46;;;;;;;;;;;;;;;14.17;100.00;97431.50;5066125;28;19937;-78
2023/10/05 10:07:16;;;;;;;;;;;;;;;14.33;100.00;97418.75;5065339;28;19938;-78
2023/10/05 10:09:47;;;;;;;;;;;;;;;14.41;100.00;97429.84;5066005;28;19941;-78
2023/10/05 10:12:33;;;;;;;;;;;;;;;14.52;100.00;97430.16;5065493;28;19938;-78
2023/10/05 10:14:59;;;;;;;;;;;;;;;14.61;97.76;97390.09;5065104;28;19938;-77
2023/10/05 10:17:29;;;;;;;;;;;;;;;14.67;98.38;97382.31;5065004;28;20250;-78
2023/10/05 10:20:34;;;;;;;;;;;;;;;14.69;94.35;97359.13;5065283;28;19935;-78
2023/10/05 10:23:07;;;;;;;;;;;;;;;14.73;95.80;97381.41;5064986;28;19943;-77
2023/10/05 10:25:38;;;;;;;;;;;;;;;14.80;98.35;97403.25;5064920;28;19940;-78
2023/10/05 10:28:10;;;;;;;;;;;;;;;14.92;99.28;97401.50;5063959;28;20247;-78
2023/10/05 10:30:36;;;;;;;;;;;;;;;15.08;97.06;97386.88;5064782;28;19941;-78
2023/10/05 10:33:20;;;;;;;;;;;;;;;15.22;96.57;97395.41;5065576;28;19941;-77
2023/10/05 10:35:46;;;;;;;;;;;;;;;15.35;97.41;97403.19;5065138;28;19956;-77
2023/10/05 10:38:17;;;;;;;;;;;;;;;15.43;95.29;97405.50;5063526;28;19957;-78
2023/10/05 10:40:53;;;;;;;;;;;;;;;15.47;94.46;97394.47;5064360;28;19950;-77
2023/10/05 10:43:20;;;;;;;;;;;;;;;15.52;96.17;97415.78;5064745;28;19948;-78
2023/10/05 10:45:49;;;;;;;;;;;;;;;15.61;95.62;97409.91;5064237;28;19947;-78
2023/10/05 10:48:22;;;;;;;;;;;;;;;15.71;97.63;97416.50;5064330;28;19989;-78
2023/10/05 10:50:52;;;;;;;;;;;;;;;15.79;94.62;97395.03;5065281;28;20021;-77
2023/10/05 10:53:20;;;;;;;;;;;;;;;15.80;89.96;97357.78;5064385;28;19945;-78
2023/10/05 10:56:04;;;;;;;;;;;;;;;15.78;92.44;97385.50;5064352;28;19947;-77
2023/10/05 10:58:31;;;;;;;;;;;;;;;15.79;95.47;97387.91;5065090;28;19954;-78
2023/10/05 11:01:02;;;;;;;;;;;;;;;15.80;94.71;97388.72;5064273;28;19934;-77
2023/10/05 11:03:30;;;;;;;;;;;;;;;15.81;95.28;97388.50;5063967;28;19941;-77
2023/10/05 11:05:58;;;;;;;;;;;;;;;15.86;91.11;97356.06;5063077;28;20240;-77
2023/10/05 11:08:24;;;;;;;;;;;;;;;15.89;94.08;97376.75;5064229;28;19946;-77
2023/10/05 11:11:06;;;;;;;;;;;;;;;15.85;89.60;97346.50;5064046;28;19938;-77
2023/10/05 11:13:33;;;;;;;;;;;;;;;15.83;91.96;97375.03;5064155;28;19939;-78
2023/10/05 11:15:59;;;;;;;;;;;;;;;15.83;87.75;97340.63;5064625;28;19938;-78
2023/10/05 11:18:26;;;;;;;;;;;;;;;15.84;90.90;97368.72;5062863;28;19959;-77
2023/10/05 11:20:52;;;;;;;;;;;;;;;15.85;92.57;97377.44;5062954;28;19942;-77
2023/10/05 11:23:25;;;;;;;;;;;;;;;15.89;92.69;97383.91;5063700;28;19943;-77
2023/10/05 11:25:52;;;;;;;;;;;;;;;15.94;88.96;97374.25;5064258;28;19946;-77
2023/10/05 11:28:24;;;;;;;;;;;;;;;15.95;88.65;97369.75;5062875;28;19943;-77
2023/10/05 11:30:53;;;;;;;;;;;;;;;15.95;84.94;97345.94;5063875;28;20251;-77
2023/10/05 11:33:19;;;;;;;;;;;;;;;16.02;89.91;97373.91;5063898;28;19938;-77
2023/10/05 11:35:49;;;;;;;;;;;;;;;16.08;86.06;97332.47;5062714;28;20262;-78
2023/10/05 11:38:16;;;;;;;;;;;;;;;16.08;91.08;97372.16;5064554;28;20238;-77
2023/10/05 11:40:53;;;;;;;;;;;;;;;16.10;90.43;97364.00;5064617;28;19938;-78
2023/10/05 11:43:20;;;;;;;;;;;;;;;16.11;89.76;97368.28;5062776;28;19944;-78
2023/10/05 11:45:54;;;;;;;;;;;;;;;16.13;89.57;97363.56;5064358;28;19947;-77
2023/10/05 11:48:20;;;;;;;;;;;;;;;16.19;90.60;97368.72;5062561;28;19964;-77
2023/10/05 11:50:52;;;;;;;;;;;;;;;16.26;89.52;97368.63;5063715;28;19991;-77
2023/10/05 11:53:21;;;;;;;;;;;;;;;16.28;88.88;97368.38;5066992;28;19934;-77
2023/10/05 11:55:49;;;;;;;;;;;;;;;16.32;90.70;97378.28;5068549;28;19940;-77
2023/10/05 11:58:16;;;;;;;;;;;;;;;16.40;87.46;97362.03;5067666;28;19957;-77
2023/10/05 12:00:44;;;;;;;;;;;;;;;16.52;86.55;97340.03;5067655;28;19945;-78
2023/10/05 12:03:11;;;;;;;;;;;;;;;16.67;87.13;97345.63;5067680;28;19946;-77
2023/10/05 12:05:38;;;;;;;;;;;;;;;16.75;83.29;97325.91;5067518;28;20229;-78
2023/10/05 12:08:05;;;;;;;;;;;;;;;16.79;84.09;97359.63;5067490;28;19936;-77
2023/10/05 12:10:32;;;;;;;;;;;;;;;16.74;81.44;97390.53;5068242;28;19937;-78
2023/10/05 12:13:01;;;;;;;;;;;;;;;16.74;81.42;97382.59;5067281;28;19936;-77
2023/10/05 12:15:28;;;;;;;;;;;;;;;16.70;83.69;97390.19;5067365;28;19937;-77
2023/10/05 12:17:54;;;;;;;;;;;;;;;16.70;84.72;97400.00;5067255;28;19957;-78
2023/10/05 12:20:21;;;;;;;;;;;;;;;16.77;86.35;97408.59;5067335;28;20003;-77
2023/10/05 12:22:49;;;;;;;;;;;;;;;16.81;84.55;97404.47;5067053;28;19956;-77
2023/10/05 12:25:15;;;;;;;;;;;;;;;16.87;86.09;97416.78;5066903;28;19984;-77
2023/10/05 12:27:41;;;;;;;;;;;;;;;16.88;85.12;97409.63;5067135;28;19937;-78
2023/10/05 12:30:16;;;;;;;;;;;;;;;16.90;86.12;97418.16;5049345;28;19939;-77
2023/10/05 12:32:42;;;;;;;;;;;;;;;16.93;84.53;97420.34;5066992;28;19955;-77
2023/10/05 12:35:13;;;;;;;;;;;;;;;16.94;83.43;97420.09;5066881;28;19955;-77
2023/10/05 12:37:40;;;;;;;;;;;;;;;16.91;82.03;97409.19;5066421;28;19963;-78
2023/10/05 12:40:17;;;;;;;;;;;;;;;16.89;84.94;97424.50;5066564;28;20090;-79
2023/10/05 12:42:49;;;;;;;;;;;;;;;16.83;85.84;97420.94;5067205;28;20229;-79
2023/10/05 12:45:16;;;;;;;;;;;;;;;16.76;87.71;97426.34;5067240;28;19938;-79
2023/10/05 12:47:42;;;;;;;;;;;;;;;16.67;86.38;97422.44;5066598;28;19966;-80
2023/10/05 12:50:08;;;;;;;;;;;;;;;16.61;89.32;97434.78;5065560;28;19995;-79
2023/10/05 12:52:34;;;;;;;;;;;;;;;16.54;88.34;97435.91;5065544;28;19938;-80
2023/10/05 12:55:00;;;;;;;;;;;;;;;16.50;88.59;97429.47;5065560;28;19940;-80
2023/10/05 12:57:26;;;;;;;;;;;;;;;16.40;82.53;97395.66;5066014;28;19956;-80
2023/10/05 12:59:52;;;;;;;;;;;;;;;16.30;86.00;97406.81;5066575;28;19944;-80
2023/10/05 13:02:18;;;;;;;;;;;;;;;16.24;84.00;97392.66;5082157;28;19964;-79
2023/10/05 13:04:45;;;;;;;;;;;;;;;16.13;81.15;97380.25;5047791;28;19950;-79